Terminal Aerodrome Forecast
Issued by NWS

Home | Current Version | Previous Version | Text Only | Print | Product List | Glossary On
Versions: 1 2 3 4 5 6 7 8 9 10 11 12 13 14
000
FTUS46 KSGX 271120
TAFCRQ
TAF
KCRQ 271120Z 2712/2812 VRB04KT P6SM BKN150 WS010/09020KT
     FM271600 08005KT P6SM BKN150
     FM271900 23009KT P6SM BKN120
     FM280200 VRB04KT P6SM BKN100
     FM280800 VRB04KT P6SM SCT100 BKN200=

USA.gov is the U.S. government's official web portal to all federal, state and local government web resources and services.